Rechercher aéroport 
image banner adimage banner ad
image banner ad

SBNM - Santo Ângelo Airport

Situé à Santo Ângelo, Brazil

ICAO - SBNM, IATA - GEL

Données fournies par Airmate  

Information générale

Coordonnées: S28°16'54" W54°10'6"
Élévation : 1056 feet MSL.
Variation magnétique : -15° East
Voir autres Aéroports à Rio Grande do Sul

Données opérationnelles

Accessible au public
Heure actuelle UTC:
Heure actuelle locale:
Météo
METAR: SBNM 301500Z AUTO 34017KT CAVOK 34/20 Q1009
TAF: Données indisponibles actuellement
Voir NOTAMs / SUP AIP / TFR affectant cet aéroport [VIEW]
Fréquences de communication: [VIEW]

Pistes:

Identifiant RWYQFULongueur (ft)Largeur (ft)SurfaceLDA (ft)
11533198ASP
29533198ASP
12533198UNK
30533198UNK

Coordonnées de l'aéroport

Adresse: Santo Ângelo Brazil

Vue satellite de SBNM